Mars — XPC8385 — position and weather

sailwx.info

Track history (hours):
 
Tides and Currents Weather Stations Pressure Air Temp Water Temp Dewpoint Dewpoint Depression Visibility Wind Speed Wind Dir Waves Ship Positions

Mars

Last reported at 2014-Sep-01 13:28 UTC. Time now 2014-Sep-01 13:59 UTC.
Position N 55°17' E 014°45'.

Length 14 m; draft 1.7 m.

Type: Pilot. MMSI: 219001058.

Date/timePositionNaut miles runAvg speedWind from/ knotsBaromVisibWave heightAir tempDewpointWater temp
2014-Sep-01 13:28N 55°17' E 014°45'0 0.0
2014-Sep-01 12:28N 55°17' E 014°45'0 0.0
2014-Sep-01 11:28N 55°17' E 014°45'0 0.2
2014-Sep-01 10:33N 55°17' E 014°45'0 0.2
2014-Sep-01 09:30N 55°17' E 014°45'0 0.0
2014-Sep-01 08:24N 55°17' E 014°45'3 3.8
2014-Sep-01 07:34N 55°16' E 014°40'3 3.2
2014-Sep-01 06:33N 55°17' E 014°45'3 2.8
2014-Sep-01 05:33N 55°18' E 014°41'3 2.8
2014-Sep-01 04:32N 55°17' E 014°45'0 0.0
2014-Sep-01 03:32N 55°17' E 014°45'0 0.0
2014-Sep-01 02:32N 55°17' E 014°45'0 0.0
2014-Sep-01 01:26N 55°17' E 014°45'0 0.0
2014-Sep-01 00:32N 55°17' E 014°45'0 0.0
2014-Aug-31 23:32N 55°17' E 014°45'0 0.0
2014-Aug-31 22:32N 55°17' E 014°45'0 0.0
2014-Aug-31 21:32N 55°17' E 014°45'0 0.0
2014-Aug-31 20:32N 55°17' E 014°45'0 0.0
2014-Aug-31 19:32N 55°17' E 014°45'0 0.0
2014-Aug-31 18:32N 55°17' E 014°45'0 0.0
2014-Aug-31 17:29N 55°17' E 014°45'2 1.8
2014-Aug-31 16:34N 55°17' E 014°43'2 1.6
2014-Aug-31 15:33N 55°17' E 014°45'0 0.0
2014-Aug-31 14:33N 55°17' E 014°45'0 0.0
2014-Aug-31 13:27N 55°17' E 014°45'0 0.0
2014-Aug-31 12:33N 55°17' E 014°45'2 1.5
2014-Aug-31 11:30N 55°17' E 014°48'0 0.0
2014-Aug-31 10:30N 55°17' E 014°48'0 0.0
2014-Aug-31 09:12N 55°17' E 014°48'0 0.0
2014-Aug-31 07:18N 55°17' E 014°48'0 0.0
2014-Aug-31 06:30N 55°17' E 014°48'0 0.0
2014-Aug-31 05:18N 55°17' E 014°48'0 0.0
2014-Aug-31 04:24N 55°17' E 014°48'0 0.0
2014-Aug-31 03:30N 55°17' E 014°48'0 0.0
2014-Aug-31 02:24N 55°17' E 014°48'0 0.0
2014-Aug-31 01:30N 55°17' E 014°48'0 0.0
2014-Aug-31 00:30N 55°17' E 014°48'0 0.0
2014-Aug-30 23:30N 55°17' E 014°48'0 0.0
2014-Aug-30 22:30N 55°17' E 014°48'0 0.0
2014-Aug-30 21:30N 55°17' E 014°48'0 0.0
2014-Aug-30 20:30N 55°17' E 014°48'0 0.0
2014-Aug-30 19:30N 55°17' E 014°48'0 0.0
2014-Aug-30 18:06N 55°17' E 014°48'0 0.0
2014-Aug-30 17:30N 55°17' E 014°48'0 0.0
2014-Aug-30 16:30N 55°17' E 014°48'0 0.0
2014-Aug-30 15:30N 55°17' E 014°48'0 0.0
2014-Aug-30 14:17N 55°17' E 014°48'0 0.0
2014-Aug-30 13:23N 55°17' E 014°48'0 0.0
2014-Aug-30 11:29N 55°17' E 014°48'0 0.0
2014-Aug-30 10:29N 55°17' E 014°48'0 0.0
2014-Aug-30 09:29N 55°17' E 014°48'0 0.0
2014-Aug-30 08:11N 55°17' E 014°48'0 0.0
2014-Aug-30 07:05N 55°17' E 014°48'0 0.0
2014-Aug-30 06:23N 55°17' E 014°48'0 0.0
2014-Aug-30 05:29N 55°17' E 014°48'0 0.0
2014-Aug-30 04:29N 55°17' E 014°48'0 0.0
2014-Aug-30 03:05N 55°17' E 014°48'0 0.0
2014-Aug-30 02:23N 55°17' E 014°48'0 0.0
2014-Aug-30 01:29N 55°17' E 014°48'0 0.0
2014-Aug-30 00:29N 55°17' E 014°48'0 0.0
2014-Aug-29 23:17N 55°17' E 014°48'0 0.0
2014-Aug-29 22:29N 55°17' E 014°48'0 0.0
2014-Aug-29 21:23N 55°17' E 014°48'0 0.0
2014-Aug-29 20:29N 55°17' E 014°48'0 0.0
2014-Aug-29 18:23N 55°17' E 014°48'0 0.0
2014-Aug-29 17:17N 55°17' E 014°48'0 0.0
2014-Aug-29 16:23N 55°17' E 014°48'0 0.0
2014-Aug-29 15:23N 55°17' E 014°48'0 0.0
2014-Aug-29 12:29N 55°17' E 014°48'0 0.0
2014-Aug-29 11:11N 55°17' E 014°48'0 0.0
2014-Aug-29 10:29N 55°17' E 014°48'0 0.0
2014-Aug-29 08:17N 55°17' E 014°48'0 0.0
2014-Aug-29 06:11N 55°17' E 014°48'0 0.0
2014-Aug-29 05:29N 55°17' E 014°48'0 0.0
2014-Aug-29 04:23N 55°17' E 014°48'0 0.0
2014-Aug-29 03:05N 55°17' E 014°48'3 5.3
2014-Aug-29 02:31N 55°19' E 014°52'3 2.9
2014-Aug-29 01:30N 55°17' E 014°48'0 0.0
2014-Aug-29 00:30N 55°17' E 014°48'0 0.0
2014-Aug-28 23:30N 55°17' E 014°48'0 0.0
2014-Aug-28 22:30N 55°17' E 014°48'0 0.0
2014-Aug-28 21:30N 55°17' E 014°48'0 0.0
2014-Aug-28 20:30N 55°17' E 014°48'0 0.0
2014-Aug-28 19:30N 55°17' E 014°48'0 0.0
2014-Aug-28 18:24N 55°17' E 014°48'0 0.0
2014-Aug-28 17:30N 55°17' E 014°48'0 0.0
2014-Aug-28 03:24N 55°17' E 014°48'0 0.0
2014-Aug-28 02:12N 55°17' E 014°48'0 0.0
2014-Aug-28 01:30N 55°17' E 014°48'0 0.0
2014-Aug-28 00:18N 55°17' E 014°48'0 0.0
2014-Aug-27 23:30N 55°17' E 014°48'0 0.0
2014-Aug-27 22:30N 55°17' E 014°48'0 0.0
2014-Aug-27 21:30N 55°17' E 014°48'0 0.0
2014-Aug-27 20:30N 55°17' E 014°48'0 0.0
2014-Aug-27 19:33N 55°17' E 014°48'0 0.0
2014-Aug-27 18:24N 55°17' E 014°48'0 0.0
2014-Aug-27 17:30N 55°17' E 014°48'0 0.0
2014-Aug-27 16:24N 55°17' E 014°48'0 0.0
2014-Aug-27 15:30N 55°17' E 014°48'0 0.0
2014-Aug-27 14:12N 55°17' E 014°48'0 0.0
2014-Aug-27 13:12N 55°17' E 014°48'0 0.0
2014-Aug-27 12:24N 55°17' E 014°48'0 0.0
2014-Aug-27 11:30N 55°17' E 014°48'0 0.2
2014-Aug-27 10:30N 55°17' E 014°48'0 0.2
2014-Aug-27 09:21N 55°17' E 014°48'0 0.0
2014-Aug-27 08:33N 55°17' E 014°48'0 0.0
2014-Aug-27 07:33N 55°17' E 014°48'0 0.0
2014-Aug-27 06:21N 55°17' E 014°48'0 0.0
2014-Aug-27 05:08N 55°17' E 014°48'0 0.0
2014-Aug-27 04:32N 55°17' E 014°48'0 0.0
2014-Aug-27 03:26N 55°17' E 014°48'0 0.0
2014-Aug-27 02:14N 55°17' E 014°48'0 0.0
2014-Aug-27 01:32N 55°17' E 014°48'0 0.0
2014-Aug-27 00:32N 55°17' E 014°48'0 0.0
2014-Aug-26 22:26N 55°17' E 014°48'0 0.0
2014-Aug-26 21:30N 55°17' E 014°48'0 0.0
2014-Aug-26 19:30N 55°17' E 014°48'0 0.0
2014-Aug-26 18:30N 55°17' E 014°48'0 0.0
2014-Aug-26 17:30N 55°17' E 014°48'0 0.0
2014-Aug-26 16:24N 55°17' E 014°48'0 0.0
2014-Aug-26 15:30N 55°17' E 014°48'0 0.0
2014-Aug-26 13:30N 55°17' E 014°48'0 0.0
2014-Aug-26 12:24N 55°17' E 014°48'0 0.0
2014-Aug-26 11:06N 55°17' E 014°48'0 0.0
2014-Aug-26 09:03N 55°17' E 014°48'0 0.0
2014-Aug-26 08:05N 55°17' E 014°48'0 0.0
2014-Aug-26 07:32N 55°17' E 014°48'0 0.0
2014-Aug-26 06:14N 55°17' E 014°48'0 0.0
2014-Aug-26 04:32N 55°17' E 014°48'0 0.0
2014-Aug-26 03:32N 55°17' E 014°48'2 1.8
2014-Aug-26 02:30N 55°18' E 014°50'2 1.8
2014-Aug-26 01:29N 55°17' E 014°48'0 0.0
2014-Aug-26 00:17N 55°17' E 014°48'0 0.0
2014-Aug-25 23:05N 55°17' E 014°48'0 0.0
2014-Aug-25 22:29N 55°17' E 014°48'0 0.0
2014-Aug-25 21:29N 55°17' E 014°48'0 0.0
2014-Aug-25 20:12N 55°17' E 014°48'0 0.0
2014-Aug-25 19:30N 55°17' E 014°48'0 0.0
2014-Aug-25 18:30N 55°17' E 014°48'0 0.0
2014-Aug-25 17:26N 55°17' E 014°48'0 0.0
2014-Aug-25 16:26N 55°17' E 014°48'0 0.0
2014-Aug-25 15:32N 55°17' E 014°48'0 0.0
2014-Aug-25 14:26N 55°17' E 014°48'0 0.0
2014-Aug-25 12:14N 55°17' E 014°48'0 0.0
2014-Aug-25 11:20N 55°17' E 014°48'0 0.0
2014-Aug-25 10:26N 55°17' E 014°48'0 0.0
2014-Aug-25 09:20N 55°17' E 014°48'0 0.0
2014-Aug-25 07:32N 55°17' E 014°48'0 0.0
2014-Aug-25 05:15N 55°17' E 014°48'0 0.0
2014-Aug-25 04:27N 55°17' E 014°48'0 0.0
2014-Aug-24 15:27N 55°17' E 014°48'0 0.0
2014-Aug-24 14:31N 55°17' E 014°48'0 0.0
2014-Aug-24 13:33N 55°17' E 014°48'0 0.0
2014-Aug-24 12:32N 55°17' E 014°48'0 0.0
2014-Aug-24 11:08N 55°17' E 014°48'0 0.0
2014-Aug-24 05:32N 55°17' E 014°48'0 0.0
2014-Aug-24 04:18N 55°17' E 014°48'0 0.0
2014-Aug-24 03:12N 55°17' E 014°48'0 0.0
2014-Aug-24 02:06N 55°17' E 014°48'0 0.0
2014-Aug-24 01:18N 55°17' E 014°48'2 2.3
2014-Aug-24 00:32N 55°18' E 014°49'2 0.5
2014-Aug-23 21:14N 55°17' E 014°48'0 0.0
2014-Aug-23 03:20N 55°17' E 014°48'0 0.0
2014-Aug-23 02:14N 55°17' E 014°48'0 0.0
2014-Aug-23 01:32N 55°17' E 014°48'0 0.0
2014-Aug-23 00:32N 55°17' E 014°48'0 0.0
2014-Aug-22 23:26N 55°17' E 014°48'0 0.0
2014-Aug-22 22:32N 55°17' E 014°48'0 0.0
2014-Aug-22 21:14N 55°17' E 014°48'0 0.0
2014-Aug-22 19:32N 55°17' E 014°48'0 0.0
2014-Aug-22 18:32N 55°17' E 014°48'0 0.0
2014-Aug-22 17:32N 55°17' E 014°48'0 0.0
2014-Aug-22 16:32N 55°17' E 014°48'0 0.0
2014-Aug-22 15:20N 55°17' E 014°48'  
Track history (hours):
 
Tides and Currents Weather Stations Pressure Air Temp Water Temp Dewpoint Dewpoint Depression Visibility Wind Speed Wind Dir Waves Ship Positions

Mars

Last reported at 2014-Sep-01 13:28 UTC. Time now 2014-Sep-01 13:59 UTC.
Position N 55°17' E 014°45'.

Length 14 m; draft 1.7 m.

Type: Pilot. MMSI: 219001058.

Date/timePositionNaut miles runAvg speedWind from/ knotsBaromVisibWave heightAir tempDewpointWater temp
2014-Sep-01 13:28N 55°17' E 014°45'0 0.0
2014-Sep-01 12:28N 55°17' E 014°45'0 0.0
2014-Sep-01 11:28N 55°17' E 014°45'0 0.2
2014-Sep-01 10:33N 55°17' E 014°45'0 0.2
2014-Sep-01 09:30N 55°17' E 014°45'0 0.0
2014-Sep-01 08:24N 55°17' E 014°45'3 3.8
2014-Sep-01 07:34N 55°16' E 014°40'3 3.2
2014-Sep-01 06:33N 55°17' E 014°45'3 2.8
2014-Sep-01 05:33N 55°18' E 014°41'3 2.8
2014-Sep-01 04:32N 55°17' E 014°45'0 0.0
2014-Sep-01 03:32N 55°17' E 014°45'0 0.0
2014-Sep-01 02:32N 55°17' E 014°45'0 0.0
2014-Sep-01 01:26N 55°17' E 014°45'0 0.0
2014-Sep-01 00:32N 55°17' E 014°45'0 0.0
2014-Aug-31 23:32N 55°17' E 014°45'0 0.0
2014-Aug-31 22:32N 55°17' E 014°45'0 0.0
2014-Aug-31 21:32N 55°17' E 014°45'0 0.0
2014-Aug-31 20:32N 55°17' E 014°45'0 0.0
2014-Aug-31 19:32N 55°17' E 014°45'0 0.0
2014-Aug-31 18:32N 55°17' E 014°45'0 0.0
2014-Aug-31 17:29N 55°17' E 014°45'2 1.8
2014-Aug-31 16:34N 55°17' E 014°43'2 1.6
2014-Aug-31 15:33N 55°17' E 014°45'0 0.0
2014-Aug-31 14:33N 55°17' E 014°45'0 0.0
2014-Aug-31 13:27N 55°17' E 014°45'0 0.0
2014-Aug-31 12:33N 55°17' E 014°45'2 1.5
2014-Aug-31 11:30N 55°17' E 014°48'0 0.0
2014-Aug-31 10:30N 55°17' E 014°48'0 0.0
2014-Aug-31 09:12N 55°17' E 014°48'0 0.0
2014-Aug-31 07:18N 55°17' E 014°48'0 0.0
2014-Aug-31 06:30N 55°17' E 014°48'0 0.0
2014-Aug-31 05:18N 55°17' E 014°48'0 0.0
2014-Aug-31 04:24N 55°17' E 014°48'0 0.0
2014-Aug-31 03:30N 55°17' E 014°48'0 0.0
2014-Aug-31 02:24N 55°17' E 014°48'0 0.0
2014-Aug-31 01:30N 55°17' E 014°48'0 0.0
2014-Aug-31 00:30N 55°17' E 014°48'0 0.0
2014-Aug-30 23:30N 55°17' E 014°48'0 0.0
2014-Aug-30 22:30N 55°17' E 014°48'0 0.0
2014-Aug-30 21:30N 55°17' E 014°48'0 0.0
2014-Aug-30 20:30N 55°17' E 014°48'0 0.0
2014-Aug-30 19:30N 55°17' E 014°48'0 0.0
2014-Aug-30 18:06N 55°17' E 014°48'0 0.0
2014-Aug-30 17:30N 55°17' E 014°48'0 0.0
2014-Aug-30 16:30N 55°17' E 014°48'0 0.0
2014-Aug-30 15:30N 55°17' E 014°48'0 0.0
2014-Aug-30 14:17N 55°17' E 014°48'0 0.0
2014-Aug-30 13:23N 55°17' E 014°48'0 0.0
2014-Aug-30 11:29N 55°17' E 014°48'0 0.0
2014-Aug-30 10:29N 55°17' E 014°48'0 0.0
2014-Aug-30 09:29N 55°17' E 014°48'0 0.0
2014-Aug-30 08:11N 55°17' E 014°48'0 0.0
2014-Aug-30 07:05N 55°17' E 014°48'0 0.0
2014-Aug-30 06:23N 55°17' E 014°48'0 0.0
2014-Aug-30 05:29N 55°17' E 014°48'0 0.0
2014-Aug-30 04:29N 55°17' E 014°48'0 0.0
2014-Aug-30 03:05N 55°17' E 014°48'0 0.0
2014-Aug-30 02:23N 55°17' E 014°48'0 0.0
2014-Aug-30 01:29N 55°17' E 014°48'0 0.0
2014-Aug-30 00:29N 55°17' E 014°48'0 0.0
2014-Aug-29 23:17N 55°17' E 014°48'0 0.0
2014-Aug-29 22:29N 55°17' E 014°48'0 0.0
2014-Aug-29 21:23N 55°17' E 014°48'0 0.0
2014-Aug-29 20:29N 55°17' E 014°48'0 0.0
2014-Aug-29 18:23N 55°17' E 014°48'0 0.0
2014-Aug-29 17:17N 55°17' E 014°48'0 0.0
2014-Aug-29 16:23N 55°17' E 014°48'0 0.0
2014-Aug-29 15:23N 55°17' E 014°48'0 0.0
2014-Aug-29 12:29N 55°17' E 014°48'0 0.0
2014-Aug-29 11:11N 55°17' E 014°48'0 0.0
2014-Aug-29 10:29N 55°17' E 014°48'0 0.0
2014-Aug-29 08:17N 55°17' E 014°48'0 0.0
2014-Aug-29 06:11N 55°17' E 014°48'0 0.0
2014-Aug-29 05:29N 55°17' E 014°48'0 0.0
2014-Aug-29 04:23N 55°17' E 014°48'0 0.0
2014-Aug-29 03:05N 55°17' E 014°48'3 5.3
2014-Aug-29 02:31N 55°19' E 014°52'3 2.9
2014-Aug-29 01:30N 55°17' E 014°48'0 0.0
2014-Aug-29 00:30N 55°17' E 014°48'0 0.0
2014-Aug-28 23:30N 55°17' E 014°48'0 0.0
2014-Aug-28 22:30N 55°17' E 014°48'0 0.0
2014-Aug-28 21:30N 55°17' E 014°48'0 0.0
2014-Aug-28 20:30N 55°17' E 014°48'0 0.0
2014-Aug-28 19:30N 55°17' E 014°48'0 0.0
2014-Aug-28 18:24N 55°17' E 014°48'0 0.0
2014-Aug-28 17:30N 55°17' E 014°48'0 0.0
2014-Aug-28 03:24N 55°17' E 014°48'0 0.0
2014-Aug-28 02:12N 55°17' E 014°48'0 0.0
2014-Aug-28 01:30N 55°17' E 014°48'0 0.0
2014-Aug-28 00:18N 55°17' E 014°48'0 0.0
2014-Aug-27 23:30N 55°17' E 014°48'0 0.0
2014-Aug-27 22:30N 55°17' E 014°48'0 0.0
2014-Aug-27 21:30N 55°17' E 014°48'0 0.0
2014-Aug-27 20:30N 55°17' E 014°48'0 0.0
2014-Aug-27 19:33N 55°17' E 014°48'0 0.0
2014-Aug-27 18:24N 55°17' E 014°48'0 0.0
2014-Aug-27 17:30N 55°17' E 014°48'0 0.0
2014-Aug-27 16:24N 55°17' E 014°48'0 0.0
2014-Aug-27 15:30N 55°17' E 014°48'0 0.0
2014-Aug-27 14:12N 55°17' E 014°48'0 0.0
2014-Aug-27 13:12N 55°17' E 014°48'0 0.0
2014-Aug-27 12:24N 55°17' E 014°48'0 0.0
2014-Aug-27 11:30N 55°17' E 014°48'0 0.2
2014-Aug-27 10:30N 55°17' E 014°48'0 0.2
2014-Aug-27 09:21N 55°17' E 014°48'0 0.0
2014-Aug-27 08:33N 55°17' E 014°48'0 0.0
2014-Aug-27 07:33N 55°17' E 014°48'0 0.0
2014-Aug-27 06:21N 55°17' E 014°48'0 0.0
2014-Aug-27 05:08N 55°17' E 014°48'0 0.0
2014-Aug-27 04:32N 55°17' E 014°48'0 0.0
2014-Aug-27 03:26N 55°17' E 014°48'0 0.0
2014-Aug-27 02:14N 55°17' E 014°48'0 0.0
2014-Aug-27 01:32N 55°17' E 014°48'0 0.0
2014-Aug-27 00:32N 55°17' E 014°48'0 0.0
2014-Aug-26 22:26N 55°17' E 014°48'0 0.0
2014-Aug-26 21:30N 55°17' E 014°48'0 0.0
2014-Aug-26 19:30N 55°17' E 014°48'0 0.0
2014-Aug-26 18:30N 55°17' E 014°48'0 0.0
2014-Aug-26 17:30N 55°17' E 014°48'0 0.0
2014-Aug-26 16:24N 55°17' E 014°48'0 0.0
2014-Aug-26 15:30N 55°17' E 014°48'0 0.0
2014-Aug-26 13:30N 55°17' E 014°48'0 0.0
2014-Aug-26 12:24N 55°17' E 014°48'0 0.0
2014-Aug-26 11:06N 55°17' E 014°48'0 0.0
2014-Aug-26 09:03N 55°17' E 014°48'0 0.0
2014-Aug-26 08:05N 55°17' E 014°48'0 0.0
2014-Aug-26 07:32N 55°17' E 014°48'0 0.0
2014-Aug-26 06:14N 55°17' E 014°48'0 0.0
2014-Aug-26 04:32N 55°17' E 014°48'0 0.0
2014-Aug-26 03:32N 55°17' E 014°48'2 1.8
2014-Aug-26 02:30N 55°18' E 014°50'2 1.8
2014-Aug-26 01:29N 55°17' E 014°48'0 0.0
2014-Aug-26 00:17N 55°17' E 014°48'0 0.0
2014-Aug-25 23:05N 55°17' E 014°48'0 0.0
2014-Aug-25 22:29N 55°17' E 014°48'0 0.0
2014-Aug-25 21:29N 55°17' E 014°48'0 0.0
2014-Aug-25 20:12N 55°17' E 014°48'0 0.0
2014-Aug-25 19:30N 55°17' E 014°48'0 0.0
2014-Aug-25 18:30N 55°17' E 014°48'0 0.0
2014-Aug-25 17:26N 55°17' E 014°48'0 0.0
2014-Aug-25 16:26N 55°17' E 014°48'0 0.0
2014-Aug-25 15:32N 55°17' E 014°48'0 0.0
2014-Aug-25 14:26N 55°17' E 014°48'0 0.0
2014-Aug-25 12:14N 55°17' E 014°48'0 0.0
2014-Aug-25 11:20N 55°17' E 014°48'0 0.0
2014-Aug-25 10:26N 55°17' E 014°48'0 0.0
2014-Aug-25 09:20N 55°17' E 014°48'0 0.0
2014-Aug-25 07:32N 55°17' E 014°48'0 0.0
2014-Aug-25 05:15N 55°17' E 014°48'0 0.0
2014-Aug-25 04:27N 55°17' E 014°48'0 0.0
2014-Aug-24 15:27N 55°17' E 014°48'0 0.0
2014-Aug-24 14:31N 55°17' E 014°48'0 0.0
2014-Aug-24 13:33N 55°17' E 014°48'0 0.0
2014-Aug-24 12:32N 55°17' E 014°48'0 0.0
2014-Aug-24 11:08N 55°17' E 014°48'0 0.0
2014-Aug-24 05:32N 55°17' E 014°48'0 0.0
2014-Aug-24 04:18N 55°17' E 014°48'0 0.0
2014-Aug-24 03:12N 55°17' E 014°48'0 0.0
2014-Aug-24 02:06N 55°17' E 014°48'0 0.0
2014-Aug-24 01:18N 55°17' E 014°48'2 2.3
2014-Aug-24 00:32N 55°18' E 014°49'2 0.5
2014-Aug-23 21:14N 55°17' E 014°48'0 0.0
2014-Aug-23 03:20N 55°17' E 014°48'0 0.0
2014-Aug-23 02:14N 55°17' E 014°48'0 0.0
2014-Aug-23 01:32N 55°17' E 014°48'0 0.0
2014-Aug-23 00:32N 55°17' E 014°48'0 0.0
2014-Aug-22 23:26N 55°17' E 014°48'0 0.0
2014-Aug-22 22:32N 55°17' E 014°48'0 0.0
2014-Aug-22 21:14N 55°17' E 014°48'0 0.0
2014-Aug-22 19:32N 55°17' E 014°48'0 0.0
2014-Aug-22 18:32N 55°17' E 014°48'0 0.0
2014-Aug-22 17:32N 55°17' E 014°48'0 0.0
2014-Aug-22 16:32N 55°17' E 014°48'0 0.0
2014-Aug-22 15:20N 55°17' E 014°48'  

Dump ship's entire track history